Terminal Aerodrome Forecast
Issued by NWS

Home | Current Version | Previous Version | Text Only | Print | Product List | Glossary Off
Versions: 1 2 3 4 5 6 7 8 9 10 11 12 13 14 15

000
FTUS43 KMPX 230500 RRA
TAFRWF
TAF
KRWF 230534Z 2306/2406 19008KT 4SM BR VCSH SCT008 OVC015
      TEMPO 2307/2311 1/2SM FG VV002
     FM231100 24007KT 2SM BR SCT008
     FM231300 27009KT P6SM SKC
     FM240100 20007KT P6SM SKC=

USA.gov is the U.S. government's official web portal to all federal, state and local government web resources and services.